sensor_id;sensor_type;location;lat;lon;timestamp;P1;durP1;ratioP1;P2;durP2;ratioP2
6529;SDS011;3298;42.688;23.366;2022-11-15T00:00:54;103.20;;;50.07;;
6529;SDS011;3298;42.688;23.366;2022-11-15T00:03:21;89.40;;;47.03;;
6529;SDS011;3298;42.688;23.366;2022-11-15T00:05:51;95.77;;;46.93;;
6529;SDS011;3298;42.688;23.366;2022-11-15T00:08:18;102.67;;;48.20;;
6529;SDS011;3298;42.688;23.366;2022-11-15T00:10:53;90.27;;;45.50;;
6529;SDS011;3298;42.688;23.366;2022-11-15T00:13:20;90.93;;;44.83;;
6529;SDS011;3298;42.688;23.366;2022-11-15T00:15:47;88.53;;;42.23;;
6529;SDS011;3298;42.688;23.366;2022-11-15T00:18:15;92.07;;;42.93;;
6529;SDS011;3298;42.688;23.366;2022-11-15T00:20:42;84.03;;;39.20;;
6529;SDS011;3298;42.688;23.366;2022-11-15T00:23:10;76.20;;;37.47;;
6529;SDS011;3298;42.688;23.366;2022-11-15T00:25:37;71.20;;;38.87;;
6529;SDS011;3298;42.688;23.366;2022-11-15T00:28:03;77.00;;;38.23;;
6529;SDS011;3298;42.688;23.366;2022-11-15T00:30:30;79.93;;;40.37;;
6529;SDS011;3298;42.688;23.366;2022-11-15T00:33:01;80.60;;;39.87;;
6529;SDS011;3298;42.688;23.366;2022-11-15T00:35:28;70.70;;;37.70;;
6529;SDS011;3298;42.688;23.366;2022-11-15T00:37:54;63.80;;;34.47;;
6529;SDS011;3298;42.688;23.366;2022-11-15T00:40:23;72.80;;;36.33;;
6529;SDS011;3298;42.688;23.366;2022-11-15T00:42:49;76.33;;;36.33;;
6529;SDS011;3298;42.688;23.366;2022-11-15T00:45:16;69.10;;;35.50;;
6529;SDS011;3298;42.688;23.366;2022-11-15T00:47:43;70.03;;;34.83;;
6529;SDS011;3298;42.688;23.366;2022-11-15T00:50:11;70.43;;;33.37;;
6529;SDS011;3298;42.688;23.366;2022-11-15T00:52:37;64.07;;;33.47;;
6529;SDS011;3298;42.688;23.366;2022-11-15T00:55:04;65.97;;;33.60;;
6529;SDS011;3298;42.688;23.366;2022-11-15T00:57:33;58.30;;;33.60;;
6529;SDS011;3298;42.688;23.366;2022-11-15T01:00:00;63.17;;;31.37;;
6529;SDS011;3298;42.688;23.366;2022-11-15T01:02:26;67.43;;;32.57;;
6529;SDS011;3298;42.688;23.366;2022-11-15T01:04:53;58.37;;;32.17;;
6529;SDS011;3298;42.688;23.366;2022-11-15T01:07:20;59.27;;;32.87;;
6529;SDS011;3298;42.688;23.366;2022-11-15T01:09:47;65.57;;;33.73;;
6529;SDS011;3298;42.688;23.366;2022-11-15T01:12:13;69.80;;;33.80;;
6529;SDS011;3298;42.688;23.366;2022-11-15T01:14:42;67.47;;;34.00;;
6529;SDS011;3298;42.688;23.366;2022-11-15T01:17:08;62.03;;;32.33;;
6529;SDS011;3298;42.688;23.366;2022-11-15T01:19:35;62.47;;;31.50;;
6529;SDS011;3298;42.688;23.366;2022-11-15T01:22:02;61.53;;;30.93;;
6529;SDS011;3298;42.688;23.366;2022-11-15T01:24:29;65.10;;;30.57;;
6529;SDS011;3298;42.688;23.366;2022-11-15T01:26:55;56.50;;;29.50;;
6529;SDS011;3298;42.688;23.366;2022-11-15T01:29:22;57.47;;;31.23;;
6529;SDS011;3298;42.688;23.366;2022-11-15T01:31:52;58.23;;;30.67;;
6529;SDS011;3298;42.688;23.366;2022-11-15T01:34:46;68.80;;;30.83;;
6529;SDS011;3298;42.688;23.366;2022-11-15T01:37:13;58.47;;;30.80;;
6529;SDS011;3298;42.688;23.366;2022-11-15T01:39:40;57.63;;;30.13;;
6529;SDS011;3298;42.688;23.366;2022-11-15T01:42:08;58.90;;;30.70;;
6529;SDS011;3298;42.688;23.366;2022-11-15T01:44:39;70.80;;;31.83;;
6529;SDS011;3298;42.688;23.366;2022-11-15T01:47:11;67.37;;;35.63;;
6529;SDS011;3298;42.688;23.366;2022-11-15T01:49:43;80.10;;;36.73;;
6529;SDS011;3298;42.688;23.366;2022-11-15T01:52:17;69.40;;;34.67;;
6529;SDS011;3298;42.688;23.366;2022-11-15T01:54:47;96.80;;;46.03;;
6529;SDS011;3298;42.688;23.366;2022-11-15T01:57:16;112.00;;;51.27;;
6529;SDS011;3298;42.688;23.366;2022-11-15T01:59:43;123.07;;;57.60;;
6529;SDS011;3298;42.688;23.366;2022-11-15T02:02:13;127.50;;;60.83;;
6529;SDS011;3298;42.688;23.366;2022-11-15T02:04:41;134.17;;;59.63;;
6529;SDS011;3298;42.688;23.366;2022-11-15T02:07:09;137.57;;;64.77;;
6529;SDS011;3298;42.688;23.366;2022-11-15T02:09:39;152.40;;;66.87;;
6529;SDS011;3298;42.688;23.366;2022-11-15T02:12:06;144.40;;;63.03;;
6529;SDS011;3298;42.688;23.366;2022-11-15T02:14:35;118.13;;;53.40;;
6529;SDS011;3298;42.688;23.366;2022-11-15T02:17:07;114.60;;;53.13;;
6529;SDS011;3298;42.688;23.366;2022-11-15T02:22:46;117.17;;;53.10;;
6529;SDS011;3298;42.688;23.366;2022-11-15T02:25:36;126.80;;;55.10;;
6529;SDS011;3298;42.688;23.366;2022-11-15T02:31:08;144.07;;;61.07;;
6529;SDS011;3298;42.688;23.366;2022-11-15T02:33:42;146.07;;;66.97;;
6529;SDS011;3298;42.688;23.366;2022-11-15T02:36:18;135.07;;;63.37;;
6529;SDS011;3298;42.688;23.366;2022-11-15T02:38:57;141.20;;;61.50;;
6529;SDS011;3298;42.688;23.366;2022-11-15T02:41:30;118.57;;;51.00;;
6529;SDS011;3298;42.688;23.366;2022-11-15T02:44:07;126.47;;;56.67;;
6529;SDS011;3298;42.688;23.366;2022-11-15T02:46:39;123.67;;;56.80;;
6529;SDS011;3298;42.688;23.366;2022-11-15T02:49:28;123.60;;;48.37;;
6529;SDS011;3298;42.688;23.366;2022-11-15T02:51:57;93.47;;;40.40;;
6529;SDS011;3298;42.688;23.366;2022-11-15T02:54:24;102.67;;;43.27;;
6529;SDS011;3298;42.688;23.366;2022-11-15T02:56:56;94.07;;;40.20;;
6529;SDS011;3298;42.688;23.366;2022-11-15T02:59:37;90.73;;;36.20;;
6529;SDS011;3298;42.688;23.366;2022-11-15T03:02:36;85.27;;;35.23;;
6529;SDS011;3298;42.688;23.366;2022-11-15T03:05:15;79.10;;;35.63;;
6529;SDS011;3298;42.688;23.366;2022-11-15T03:07:51;78.70;;;34.27;;
6529;SDS011;3298;42.688;23.366;2022-11-15T03:10:24;94.90;;;38.60;;
6529;SDS011;3298;42.688;23.366;2022-11-15T03:12:57;101.33;;;38.37;;
6529;SDS011;3298;42.688;23.366;2022-11-15T03:15:27;106.13;;;40.10;;
6529;SDS011;3298;42.688;23.366;2022-11-15T03:17:58;83.83;;;37.80;;
6529;SDS011;3298;42.688;23.366;2022-11-15T03:20:27;93.33;;;33.57;;
6529;SDS011;3298;42.688;23.366;2022-11-15T03:22:56;102.80;;;37.87;;
6529;SDS011;3298;42.688;23.366;2022-11-15T03:25:27;101.77;;;37.33;;
6529;SDS011;3298;42.688;23.366;2022-11-15T03:27:57;102.20;;;39.03;;
6529;SDS011;3298;42.688;23.366;2022-11-15T03:30:29;102.07;;;38.00;;
6529;SDS011;3298;42.688;23.366;2022-11-15T03:33:00;91.93;;;34.60;;
6529;SDS011;3298;42.688;23.366;2022-11-15T03:35:30;117.80;;;39.10;;
6529;SDS011;3298;42.688;23.366;2022-11-15T03:38:04;103.07;;;37.87;;
6529;SDS011;3298;42.688;23.366;2022-11-15T03:40:39;86.53;;;34.03;;
6529;SDS011;3298;42.688;23.366;2022-11-15T03:43:09;92.50;;;36.20;;
6529;SDS011;3298;42.688;23.366;2022-11-15T03:45:46;90.00;;;33.07;;
6529;SDS011;3298;42.688;23.366;2022-11-15T03:48:20;87.30;;;34.27;;
6529;SDS011;3298;42.688;23.366;2022-11-15T03:50:50;88.37;;;37.17;;
6529;SDS011;3298;42.688;23.366;2022-11-15T03:53:17;79.30;;;35.97;;
6529;SDS011;3298;42.688;23.366;2022-11-15T03:55:44;90.00;;;35.87;;
6529;SDS011;3298;42.688;23.366;2022-11-15T03:58:11;102.73;;;36.33;;
6529;SDS011;3298;42.688;23.366;2022-11-15T04:00:37;83.87;;;36.40;;
6529;SDS011;3298;42.688;23.366;2022-11-15T04:03:04;80.90;;;34.47;;
6529;SDS011;3298;42.688;23.366;2022-11-15T04:05:33;74.77;;;32.57;;
6529;SDS011;3298;42.688;23.366;2022-11-15T04:08:00;68.10;;;30.63;;
6529;SDS011;3298;42.688;23.366;2022-11-15T04:10:27;63.17;;;30.70;;
6529;SDS011;3298;42.688;23.366;2022-11-15T04:12:54;79.30;;;31.53;;
6529;SDS011;3298;42.688;23.366;2022-11-15T04:15:21;67.73;;;31.37;;
6529;SDS011;3298;42.688;23.366;2022-11-15T04:17:49;68.80;;;30.77;;
6529;SDS011;3298;42.688;23.366;2022-11-15T04:20:18;74.53;;;30.90;;
6529;SDS011;3298;42.688;23.366;2022-11-15T04:23:06;62.67;;;29.53;;
6529;SDS011;3298;42.688;23.366;2022-11-15T04:25:52;57.43;;;26.57;;
6529;SDS011;3298;42.688;23.366;2022-11-15T04:28:21;50.07;;;27.47;;
6529;SDS011;3298;42.688;23.366;2022-11-15T04:30:48;65.90;;;29.90;;
6529;SDS011;3298;42.688;23.366;2022-11-15T04:33:15;63.60;;;29.03;;
6529;SDS011;3298;42.688;23.366;2022-11-15T04:35:42;54.70;;;26.93;;
6529;SDS011;3298;42.688;23.366;2022-11-15T04:38:30;51.33;;;28.67;;
6529;SDS011;3298;42.688;23.366;2022-11-15T04:40:56;49.40;;;27.40;;
6529;SDS011;3298;42.688;23.366;2022-11-15T04:43:23;54.40;;;27.63;;
6529;SDS011;3298;42.688;23.366;2022-11-15T04:45:49;44.70;;;25.40;;
6529;SDS011;3298;42.688;23.366;2022-11-15T04:48:16;47.27;;;27.67;;
6529;SDS011;3298;42.688;23.366;2022-11-15T04:50:43;41.87;;;25.10;;
6529;SDS011;3298;42.688;23.366;2022-11-15T04:53:10;51.70;;;25.90;;
6529;SDS011;3298;42.688;23.366;2022-11-15T04:55:38;51.13;;;25.07;;
6529;SDS011;3298;42.688;23.366;2022-11-15T04:58:05;44.63;;;25.87;;
6529;SDS011;3298;42.688;23.366;2022-11-15T05:00:31;46.50;;;25.47;;
6529;SDS011;3298;42.688;23.366;2022-11-15T05:02:58;51.47;;;25.70;;
6529;SDS011;3298;42.688;23.366;2022-11-15T05:05:42;46.63;;;25.13;;
6529;SDS011;3298;42.688;23.366;2022-11-15T05:08:09;47.60;;;25.43;;
6529;SDS011;3298;42.688;23.366;2022-11-15T05:10:37;42.10;;;24.17;;
6529;SDS011;3298;42.688;23.366;2022-11-15T05:13:04;43.87;;;23.03;;
6529;SDS011;3298;42.688;23.366;2022-11-15T05:15:31;48.27;;;23.30;;
6529;SDS011;3298;42.688;23.366;2022-11-15T05:17:58;48.47;;;24.93;;
6529;SDS011;3298;42.688;23.366;2022-11-15T05:20:25;46.87;;;23.00;;
6529;SDS011;3298;42.688;23.366;2022-11-15T05:22:52;51.20;;;23.53;;
6529;SDS011;3298;42.688;23.366;2022-11-15T05:25:20;47.30;;;22.90;;
6529;SDS011;3298;42.688;23.366;2022-11-15T05:27:48;46.80;;;23.80;;
6529;SDS011;3298;42.688;23.366;2022-11-15T05:30:15;53.17;;;26.13;;
6529;SDS011;3298;42.688;23.366;2022-11-15T05:32:42;60.57;;;31.33;;
6529;SDS011;3298;42.688;23.366;2022-11-15T05:35:11;58.83;;;28.67;;
6529;SDS011;3298;42.688;23.366;2022-11-15T05:37:44;58.07;;;27.57;;
6529;SDS011;3298;42.688;23.366;2022-11-15T05:40:11;67.07;;;28.93;;
6529;SDS011;3298;42.688;23.366;2022-11-15T05:42:38;64.20;;;28.30;;
6529;SDS011;3298;42.688;23.366;2022-11-15T05:45:06;64.53;;;30.03;;
6529;SDS011;3298;42.688;23.366;2022-11-15T05:47:35;67.67;;;29.77;;
6529;SDS011;3298;42.688;23.366;2022-11-15T05:50:05;68.43;;;28.63;;
6529;SDS011;3298;42.688;23.366;2022-11-15T05:52:34;69.77;;;28.43;;
6529;SDS011;3298;42.688;23.366;2022-11-15T05:55:03;58.50;;;26.93;;
6529;SDS011;3298;42.688;23.366;2022-11-15T05:57:32;66.20;;;26.97;;
6529;SDS011;3298;42.688;23.366;2022-11-15T05:59:59;67.77;;;27.23;;
6529;SDS011;3298;42.688;23.366;2022-11-15T06:02:27;51.17;;;23.17;;
6529;SDS011;3298;42.688;23.366;2022-11-15T06:04:54;48.93;;;24.40;;
6529;SDS011;3298;42.688;23.366;2022-11-15T06:07:21;39.40;;;20.67;;
6529;SDS011;3298;42.688;23.366;2022-11-15T06:09:48;35.60;;;17.40;;
6529;SDS011;3298;42.688;23.366;2022-11-15T06:12:15;37.23;;;17.97;;
6529;SDS011;3298;42.688;23.366;2022-11-15T06:14:41;37.53;;;18.27;;
6529;SDS011;3298;42.688;23.366;2022-11-15T06:17:08;38.23;;;17.43;;
6529;SDS011;3298;42.688;23.366;2022-11-15T06:19:36;48.83;;;21.03;;
6529;SDS011;3298;42.688;23.366;2022-11-15T06:22:03;41.60;;;18.80;;
6529;SDS011;3298;42.688;23.366;2022-11-15T06:24:30;35.83;;;18.30;;
6529;SDS011;3298;42.688;23.366;2022-11-15T06:26:57;34.17;;;17.27;;
6529;SDS011;3298;42.688;23.366;2022-11-15T06:29:24;37.03;;;16.47;;
6529;SDS011;3298;42.688;23.366;2022-11-15T06:31:50;35.17;;;15.43;;
6529;SDS011;3298;42.688;23.366;2022-11-15T06:34:17;30.50;;;16.20;;
6529;SDS011;3298;42.688;23.366;2022-11-15T06:36:45;31.33;;;16.07;;
6529;SDS011;3298;42.688;23.366;2022-11-15T06:39:12;27.27;;;14.97;;
6529;SDS011;3298;42.688;23.366;2022-11-15T06:41:39;33.43;;;15.77;;
6529;SDS011;3298;42.688;23.366;2022-11-15T06:44:06;34.97;;;17.37;;
6529;SDS011;3298;42.688;23.366;2022-11-15T06:46:32;37.37;;;17.03;;
6529;SDS011;3298;42.688;23.366;2022-11-15T06:48:59;33.53;;;17.37;;
6529;SDS011;3298;42.688;23.366;2022-11-15T06:51:26;27.77;;;14.97;;
6529;SDS011;3298;42.688;23.366;2022-11-15T06:53:54;35.07;;;17.87;;
6529;SDS011;3298;42.688;23.366;2022-11-15T06:56:21;41.53;;;18.90;;
6529;SDS011;3298;42.688;23.366;2022-11-15T06:58:48;39.47;;;18.87;;
6529;SDS011;3298;42.688;23.366;2022-11-15T07:01:14;29.50;;;16.17;;
6529;SDS011;3298;42.688;23.366;2022-11-15T07:03:41;29.63;;;16.00;;
6529;SDS011;3298;42.688;23.366;2022-11-15T07:06:08;33.30;;;16.47;;
6529;SDS011;3298;42.688;23.366;2022-11-15T07:08:36;39.60;;;19.73;;
6529;SDS011;3298;42.688;23.366;2022-11-15T07:11:05;37.20;;;17.97;;
6529;SDS011;3298;42.688;23.366;2022-11-15T07:13:33;40.30;;;18.10;;
6529;SDS011;3298;42.688;23.366;2022-11-15T07:16:01;39.77;;;18.73;;
6529;SDS011;3298;42.688;23.366;2022-11-15T07:18:29;45.00;;;21.43;;
6529;SDS011;3298;42.688;23.366;2022-11-15T07:20:59;42.87;;;20.63;;
6529;SDS011;3298;42.688;23.366;2022-11-15T07:23:27;53.77;;;23.43;;
6529;SDS011;3298;42.688;23.366;2022-11-15T07:25:55;47.57;;;21.30;;
6529;SDS011;3298;42.688;23.366;2022-11-15T07:28:24;43.23;;;20.70;;
6529;SDS011;3298;42.688;23.366;2022-11-15T07:30:51;62.93;;;26.40;;
6529;SDS011;3298;42.688;23.366;2022-11-15T07:33:17;63.07;;;25.13;;
6529;SDS011;3298;42.688;23.366;2022-11-15T07:35:44;63.60;;;26.20;;
6529;SDS011;3298;42.688;23.366;2022-11-15T07:38:14;71.50;;;26.77;;
6529;SDS011;3298;42.688;23.366;2022-11-15T07:40:44;57.27;;;23.03;;
6529;SDS011;3298;42.688;23.366;2022-11-15T07:43:11;54.30;;;22.93;;
6529;SDS011;3298;42.688;23.366;2022-11-15T07:45:41;46.17;;;22.20;;
6529;SDS011;3298;42.688;23.366;2022-11-15T07:48:09;50.00;;;22.87;;
6529;SDS011;3298;42.688;23.366;2022-11-15T07:50:36;48.67;;;22.70;;
6529;SDS011;3298;42.688;23.366;2022-11-15T07:53:03;56.00;;;23.13;;
6529;SDS011;3298;42.688;23.366;2022-11-15T07:55:29;43.93;;;21.63;;
6529;SDS011;3298;42.688;23.366;2022-11-15T07:58:00;43.57;;;22.13;;
6529;SDS011;3298;42.688;23.366;2022-11-15T08:00:27;43.67;;;23.43;;
6529;SDS011;3298;42.688;23.366;2022-11-15T08:03:02;56.90;;;24.10;;
6529;SDS011;3298;42.688;23.366;2022-11-15T08:05:29;56.40;;;23.10;;
6529;SDS011;3298;42.688;23.366;2022-11-15T08:07:56;46.87;;;21.87;;
6529;SDS011;3298;42.688;23.366;2022-11-15T08:10:23;46.60;;;22.40;;
6529;SDS011;3298;42.688;23.366;2022-11-15T08:12:56;46.47;;;22.30;;
6529;SDS011;3298;42.688;23.366;2022-11-15T08:15:23;48.37;;;23.13;;
6529;SDS011;3298;42.688;23.366;2022-11-15T08:17:52;49.17;;;23.77;;
6529;SDS011;3298;42.688;23.366;2022-11-15T08:20:21;51.77;;;24.37;;
6529;SDS011;3298;42.688;23.366;2022-11-15T08:22:48;51.67;;;24.23;;
6529;SDS011;3298;42.688;23.366;2022-11-15T08:25:15;44.87;;;22.20;;
6529;SDS011;3298;42.688;23.366;2022-11-15T08:27:42;51.40;;;23.37;;
6529;SDS011;3298;42.688;23.366;2022-11-15T08:30:09;49.90;;;23.90;;
6529;SDS011;3298;42.688;23.366;2022-11-15T08:32:37;51.03;;;25.57;;
6529;SDS011;3298;42.688;23.366;2022-11-15T08:35:04;51.47;;;26.33;;
6529;SDS011;3298;42.688;23.366;2022-11-15T08:37:33;58.93;;;27.87;;
6529;SDS011;3298;42.688;23.366;2022-11-15T08:40:00;55.67;;;25.37;;
6529;SDS011;3298;42.688;23.366;2022-11-15T08:42:27;61.77;;;28.87;;
6529;SDS011;3298;42.688;23.366;2022-11-15T08:44:54;65.63;;;32.63;;
6529;SDS011;3298;42.688;23.366;2022-11-15T08:47:20;71.57;;;31.53;;
6529;SDS011;3298;42.688;23.366;2022-11-15T08:49:47;61.07;;;28.97;;
6529;SDS011;3298;42.688;23.366;2022-11-15T08:52:14;63.30;;;27.83;;
6529;SDS011;3298;42.688;23.366;2022-11-15T08:54:42;60.57;;;27.53;;
6529;SDS011;3298;42.688;23.366;2022-11-15T08:57:09;58.43;;;28.90;;
6529;SDS011;3298;42.688;23.366;2022-11-15T08:59:36;66.40;;;28.23;;
6529;SDS011;3298;42.688;23.366;2022-11-15T09:02:03;68.03;;;29.70;;
6529;SDS011;3298;42.688;23.366;2022-11-15T09:04:30;61.67;;;28.77;;
6529;SDS011;3298;42.688;23.366;2022-11-15T09:06:57;71.60;;;29.60;;
6529;SDS011;3298;42.688;23.366;2022-11-15T09:09:24;66.00;;;30.73;;
6529;SDS011;3298;42.688;23.366;2022-11-15T09:11:52;77.27;;;31.40;;
6529;SDS011;3298;42.688;23.366;2022-11-15T09:14:18;72.03;;;30.77;;
6529;SDS011;3298;42.688;23.366;2022-11-15T09:16:45;64.80;;;30.67;;
6529;SDS011;3298;42.688;23.366;2022-11-15T09:19:12;71.43;;;32.20;;
6529;SDS011;3298;42.688;23.366;2022-11-15T09:21:39;74.90;;;32.70;;
6529;SDS011;3298;42.688;23.366;2022-11-15T09:24:06;77.00;;;33.23;;
6529;SDS011;3298;42.688;23.366;2022-11-15T09:26:33;96.03;;;38.00;;
6529;SDS011;3298;42.688;23.366;2022-11-15T09:29:02;89.70;;;37.03;;
6529;SDS011;3298;42.688;23.366;2022-11-15T09:31:29;84.33;;;36.83;;
6529;SDS011;3298;42.688;23.366;2022-11-15T09:33:56;92.37;;;39.97;;
6529;SDS011;3298;42.688;23.366;2022-11-15T09:36:22;96.50;;;39.63;;
6529;SDS011;3298;42.688;23.366;2022-11-15T09:38:49;103.77;;;41.33;;
6529;SDS011;3298;42.688;23.366;2022-11-15T09:44:17;93.80;;;39.73;;
6529;SDS011;3298;42.688;23.366;2022-11-15T09:46:58;80.07;;;36.87;;
6529;SDS011;3298;42.688;23.366;2022-11-15T09:49:33;78.70;;;36.00;;
6529;SDS011;3298;42.688;23.366;2022-11-15T09:52:00;81.93;;;37.10;;
6529;SDS011;3298;42.688;23.366;2022-11-15T09:54:29;89.90;;;36.87;;
6529;SDS011;3298;42.688;23.366;2022-11-15T09:57:03;75.67;;;36.47;;
6529;SDS011;3298;42.688;23.366;2022-11-15T09:59:40;93.33;;;41.43;;
6529;SDS011;3298;42.688;23.366;2022-11-15T10:02:18;99.67;;;41.20;;
6529;SDS011;3298;42.688;23.366;2022-11-15T10:04:56;86.33;;;38.30;;
6529;SDS011;3298;42.688;23.366;2022-11-15T10:07:25;84.07;;;37.33;;
6529;SDS011;3298;42.688;23.366;2022-11-15T10:09:59;87.20;;;38.73;;
6529;SDS011;3298;42.688;23.366;2022-11-15T10:12:30;76.90;;;36.77;;
6529;SDS011;3298;42.688;23.366;2022-11-15T10:15:02;74.77;;;35.93;;
6529;SDS011;3298;42.688;23.366;2022-11-15T10:17:40;82.73;;;37.47;;
6529;SDS011;3298;42.688;23.366;2022-11-15T10:20:17;97.20;;;43.07;;
6529;SDS011;3298;42.688;23.366;2022-11-15T10:22:47;94.77;;;40.57;;
6529;SDS011;3298;42.688;23.366;2022-11-15T10:25:18;94.63;;;43.20;;
6529;SDS011;3298;42.688;23.366;2022-11-15T10:27:51;85.07;;;40.13;;
6529;SDS011;3298;42.688;23.366;2022-11-15T10:30:22;90.00;;;37.90;;
6529;SDS011;3298;42.688;23.366;2022-11-15T10:32:55;88.83;;;41.23;;
6529;SDS011;3298;42.688;23.366;2022-11-15T10:35:23;96.50;;;43.00;;
6529;SDS011;3298;42.688;23.366;2022-11-15T10:37:51;98.47;;;45.00;;
6529;SDS011;3298;42.688;23.366;2022-11-15T10:40:20;98.83;;;43.47;;
6529;SDS011;3298;42.688;23.366;2022-11-15T10:42:48;86.10;;;39.80;;
6529;SDS011;3298;42.688;23.366;2022-11-15T10:45:33;95.43;;;43.97;;
6529;SDS011;3298;42.688;23.366;2022-11-15T10:48:20;92.43;;;42.23;;
6529;SDS011;3298;42.688;23.366;2022-11-15T10:50:51;87.47;;;37.67;;
6529;SDS011;3298;42.688;23.366;2022-11-15T10:53:21;89.87;;;39.03;;
6529;SDS011;3298;42.688;23.366;2022-11-15T10:55:51;79.60;;;38.83;;
6529;SDS011;3298;42.688;23.366;2022-11-15T10:58:22;81.67;;;38.00;;
6529;SDS011;3298;42.688;23.366;2022-11-15T11:01:07;72.83;;;33.80;;
6529;SDS011;3298;42.688;23.366;2022-11-15T11:03:36;73.83;;;34.73;;
6529;SDS011;3298;42.688;23.366;2022-11-15T11:06:06;71.07;;;31.23;;
6529;SDS011;3298;42.688;23.366;2022-11-15T11:08:34;68.60;;;30.60;;
6529;SDS011;3298;42.688;23.366;2022-11-15T11:11:02;67.43;;;31.87;;
6529;SDS011;3298;42.688;23.366;2022-11-15T11:13:31;75.30;;;35.47;;
6529;SDS011;3298;42.688;23.366;2022-11-15T11:16:02;62.53;;;32.23;;
6529;SDS011;3298;42.688;23.366;2022-11-15T11:18:51;69.23;;;35.33;;
6529;SDS011;3298;42.688;23.366;2022-11-15T11:21:30;63.70;;;32.47;;
6529;SDS011;3298;42.688;23.366;2022-11-15T11:24:09;66.43;;;32.03;;
6529;SDS011;3298;42.688;23.366;2022-11-15T11:26:46;70.07;;;33.53;;
6529;SDS011;3298;42.688;23.366;2022-11-15T11:29:26;70.00;;;32.87;;
6529;SDS011;3298;42.688;23.366;2022-11-15T11:32:22;61.73;;;31.73;;
6529;SDS011;3298;42.688;23.366;2022-11-15T11:34:58;76.13;;;35.07;;
6529;SDS011;3298;42.688;23.366;2022-11-15T11:37:35;67.37;;;33.27;;
6529;SDS011;3298;42.688;23.366;2022-11-15T11:40:10;65.23;;;32.77;;
6529;SDS011;3298;42.688;23.366;2022-11-15T11:42:49;68.30;;;33.20;;
6529;SDS011;3298;42.688;23.366;2022-11-15T11:45:29;58.70;;;29.67;;
6529;SDS011;3298;42.688;23.366;2022-11-15T11:48:13;57.43;;;31.07;;
6529;SDS011;3298;42.688;23.366;2022-11-15T11:50:46;50.10;;;28.17;;
6529;SDS011;3298;42.688;23.366;2022-11-15T11:53:14;53.80;;;28.23;;
6529;SDS011;3298;42.688;23.366;2022-11-15T11:55:52;60.93;;;30.70;;
6529;SDS011;3298;42.688;23.366;2022-11-15T11:58:33;58.17;;;31.13;;
6529;SDS011;3298;42.688;23.366;2022-11-15T12:01:04;58.23;;;30.27;;
6529;SDS011;3298;42.688;23.366;2022-11-15T12:03:51;56.93;;;29.73;;
6529;SDS011;3298;42.688;23.366;2022-11-15T12:06:26;53.63;;;28.83;;
6529;SDS011;3298;42.688;23.366;2022-11-15T12:08:58;64.30;;;31.27;;
6529;SDS011;3298;42.688;23.366;2022-11-15T12:11:29;60.17;;;30.77;;
6529;SDS011;3298;42.688;23.366;2022-11-15T12:14:03;58.10;;;29.57;;
6529;SDS011;3298;42.688;23.366;2022-11-15T12:16:37;64.47;;;31.70;;
6529;SDS011;3298;42.688;23.366;2022-11-15T12:19:09;61.67;;;30.73;;
6529;SDS011;3298;42.688;23.366;2022-11-15T12:21:38;59.37;;;30.37;;
6529;SDS011;3298;42.688;23.366;2022-11-15T12:24:12;65.10;;;32.93;;
6529;SDS011;3298;42.688;23.366;2022-11-15T12:26:52;78.47;;;33.27;;
6529;SDS011;3298;42.688;23.366;2022-11-15T12:29:24;69.27;;;33.87;;
6529;SDS011;3298;42.688;23.366;2022-11-15T12:31:55;67.20;;;32.37;;
6529;SDS011;3298;42.688;23.366;2022-11-15T12:40:18;65.63;;;32.37;;
6529;SDS011;3298;42.688;23.366;2022-11-15T12:42:58;63.70;;;33.23;;
6529;SDS011;3298;42.688;23.366;2022-11-15T12:45:53;69.87;;;36.10;;
6529;SDS011;3298;42.688;23.366;2022-11-15T12:51:14;69.47;;;33.67;;
6529;SDS011;3298;42.688;23.366;2022-11-15T12:53:41;66.80;;;34.03;;
6529;SDS011;3298;42.688;23.366;2022-11-15T12:56:18;69.83;;;38.23;;
6529;SDS011;3298;42.688;23.366;2022-11-15T12:58:48;69.63;;;36.53;;
6529;SDS011;3298;42.688;23.366;2022-11-15T13:04:24;70.97;;;37.00;;
6529;SDS011;3298;42.688;23.366;2022-11-15T13:06:55;74.53;;;36.97;;
6529;SDS011;3298;42.688;23.366;2022-11-15T13:15:32;67.13;;;34.77;;
6529;SDS011;3298;42.688;23.366;2022-11-15T13:20:53;75.33;;;35.97;;
6529;SDS011;3298;42.688;23.366;2022-11-15T13:23:21;71.77;;;35.17;;
6529;SDS011;3298;42.688;23.366;2022-11-15T13:25:57;70.83;;;34.60;;
6529;SDS011;3298;42.688;23.366;2022-11-15T13:28:36;78.37;;;36.13;;
6529;SDS011;3298;42.688;23.366;2022-11-15T13:31:15;67.83;;;34.40;;
6529;SDS011;3298;42.688;23.366;2022-11-15T13:33:56;68.13;;;35.50;;
6529;SDS011;3298;42.688;23.366;2022-11-15T13:36:27;69.07;;;35.60;;
6529;SDS011;3298;42.688;23.366;2022-11-15T13:38:58;71.40;;;35.27;;
6529;SDS011;3298;42.688;23.366;2022-11-15T13:41:27;67.57;;;34.83;;
6529;SDS011;3298;42.688;23.366;2022-11-15T13:43:56;70.47;;;35.73;;
6529;SDS011;3298;42.688;23.366;2022-11-15T13:46:23;67.27;;;34.63;;
6529;SDS011;3298;42.688;23.366;2022-11-15T13:48:52;68.60;;;35.27;;
6529;SDS011;3298;42.688;23.366;2022-11-15T13:51:24;67.47;;;33.53;;
6529;SDS011;3298;42.688;23.366;2022-11-15T13:53:56;59.47;;;34.00;;
6529;SDS011;3298;42.688;23.366;2022-11-15T13:56:28;61.03;;;34.80;;
6529;SDS011;3298;42.688;23.366;2022-11-15T13:58:57;81.10;;;34.87;;
6529;SDS011;3298;42.688;23.366;2022-11-15T14:01:23;63.63;;;33.87;;
6529;SDS011;3298;42.688;23.366;2022-11-15T14:03:55;70.03;;;35.50;;
6529;SDS011;3298;42.688;23.366;2022-11-15T14:06:24;64.83;;;34.23;;
6529;SDS011;3298;42.688;23.366;2022-11-15T14:09:02;69.73;;;36.73;;
6529;SDS011;3298;42.688;23.366;2022-11-15T14:11:49;58.97;;;34.50;;
6529;SDS011;3298;42.688;23.366;2022-11-15T14:14:19;68.57;;;34.60;;
6529;SDS011;3298;42.688;23.366;2022-11-15T14:16:48;60.27;;;33.47;;
6529;SDS011;3298;42.688;23.366;2022-11-15T14:19:37;61.27;;;32.03;;
6529;SDS011;3298;42.688;23.366;2022-11-15T14:22:09;58.77;;;31.23;;
6529;SDS011;3298;42.688;23.366;2022-11-15T14:24:39;64.20;;;32.57;;
6529;SDS011;3298;42.688;23.366;2022-11-15T14:27:17;54.97;;;31.10;;
6529;SDS011;3298;42.688;23.366;2022-11-15T14:29:49;59.67;;;30.43;;
6529;SDS011;3298;42.688;23.366;2022-11-15T14:32:17;58.90;;;29.43;;
6529;SDS011;3298;42.688;23.366;2022-11-15T14:34:46;62.47;;;31.10;;
6529;SDS011;3298;42.688;23.366;2022-11-15T14:37:20;56.80;;;29.77;;
6529;SDS011;3298;42.688;23.366;2022-11-15T14:39:50;63.87;;;31.07;;
6529;SDS011;3298;42.688;23.366;2022-11-15T14:42:18;60.57;;;31.80;;
6529;SDS011;3298;42.688;23.366;2022-11-15T14:44:46;68.87;;;33.27;;
6529;SDS011;3298;42.688;23.366;2022-11-15T14:47:13;68.33;;;33.90;;
6529;SDS011;3298;42.688;23.366;2022-11-15T14:49:40;71.77;;;33.87;;
6529;SDS011;3298;42.688;23.366;2022-11-15T14:52:22;68.53;;;36.53;;
6529;SDS011;3298;42.688;23.366;2022-11-15T14:54:52;76.70;;;36.80;;
6529;SDS011;3298;42.688;23.366;2022-11-15T14:57:19;63.50;;;34.87;;
6529;SDS011;3298;42.688;23.366;2022-11-15T14:59:46;72.40;;;37.63;;
6529;SDS011;3298;42.688;23.366;2022-11-15T15:02:17;65.53;;;37.03;;
6529;SDS011;3298;42.688;23.366;2022-11-15T15:04:46;77.23;;;38.47;;
6529;SDS011;3298;42.688;23.366;2022-11-15T15:07:13;72.73;;;38.67;;
6529;SDS011;3298;42.688;23.366;2022-11-15T15:09:40;78.33;;;37.27;;
6529;SDS011;3298;42.688;23.366;2022-11-15T15:12:13;68.47;;;36.33;;
6529;SDS011;3298;42.688;23.366;2022-11-15T15:14:42;71.37;;;35.63;;
6529;SDS011;3298;42.688;23.366;2022-11-15T15:17:09;71.97;;;35.83;;
6529;SDS011;3298;42.688;23.366;2022-11-15T15:19:36;75.57;;;39.23;;
6529;SDS011;3298;42.688;23.366;2022-11-15T15:22:03;86.57;;;43.13;;